Time;durP1;ratioP1;P1;durP2;ratioP2;P2;SDS_P1;SDS_P2;PMS_P1;PMS_P2;Temp;Humidity;BMP_temperature;BMP_pressure;BME280_temperature;BME280_humidity;BME280_pressure;Samples;Min_cycle;Max_cycle;Signal;HPM_P1;HPM_P2
2023/03/13 00:01:16;;;;;;;33.70;9.60;;;;;;;-1.40;69.29;98982.77;109089;1259;69220;-72
2023/03/13 00:04:03;;;;;;;35.00;9.90;;;;;;;-1.42;69.34;98982.86;109001;1260;73695;-72
2023/03/13 00:06:49;;;;;;;24.00;8.50;;;;;;;-1.45;69.52;98984.70;108225;1260;1002085;-72
2023/03/13 00:09:36;;;;;;;21.80;8.40;;;;;;;-1.48;69.55;98985.20;108989;1259;58987;-72
2023/03/13 00:12:22;;;;;;;25.50;8.90;;;;;;;-1.52;70.03;98981.73;108327;1259;1002390;-72
2023/03/13 00:15:09;;;;;;;20.50;6.90;;;;;;;-1.55;70.18;98975.63;109131;1259;67704;-71
2023/03/13 00:17:56;;;;;;;23.90;8.10;;;;;;;-1.57;70.48;98971.88;109089;1260;71413;-75
2023/03/13 00:20:42;;;;;;;18.30;7.10;;;;;;;-1.58;70.64;98973.12;108936;1259;58001;-72
2023/03/13 00:23:29;;;;;;;20.90;7.80;;;;;;;-1.57;70.60;98969.63;109043;1259;59368;-71
2023/03/13 00:26:19;;;;;;;21.20;7.30;;;;;;;-1.55;71.19;98967.08;108989;1260;73146;-72
2023/03/13 00:29:06;;;;;;;20.50;7.20;;;;;;;-1.52;71.11;98966.25;109027;1259;66634;-73
2023/03/13 00:31:53;;;;;;;17.00;6.30;;;;;;;-1.48;71.12;98978.95;109081;1259;73747;-73
2023/03/13 00:34:40;;;;;;;22.40;7.40;;;;;;;-1.43;71.36;98979.61;108917;1259;57789;-73
2023/03/13 00:37:27;;;;;;;24.90;8.30;;;;;;;-1.40;71.41;98981.91;109102;1259;60188;-72
2023/03/13 00:40:13;;;;;;;18.20;7.30;;;;;;;-1.38;71.61;98977.80;109111;1259;72996;-72
2023/03/13 00:43:00;;;;;;;19.40;6.90;;;;;;;-1.36;71.55;98968.15;109022;1259;68121;-72
2023/03/13 00:45:47;;;;;;;17.80;5.90;;;;;;;-1.33;71.54;98959.65;107586;1259;1002570;-73
2023/03/13 00:48:34;;;;;;;17.50;6.80;;;;;;;-1.29;71.82;98955.83;108302;1259;1002212;-71
2023/03/13 00:51:25;;;;;;;22.00;7.50;;;;;;;-1.25;72.17;98945.54;109084;1259;60224;-72
2023/03/13 00:54:12;;;;;;;18.30;6.20;;;;;;;-1.19;72.07;98942.31;108965;1259;72855;-72
2023/03/13 00:56:58;;;;;;;20.50;7.00;;;;;;;-1.15;72.04;98933.91;108988;1260;67876;-73
2023/03/13 00:59:45;;;;;;;19.10;5.90;;;;;;;-1.11;72.07;98925.70;109011;1260;72565;-73
2023/03/13 01:02:33;;;;;;;17.70;6.00;;;;;;;-1.07;72.08;98916.63;109056;1259;58268;-71
2023/03/13 01:05:19;;;;;;;18.60;5.80;;;;;;;-1.05;72.31;98903.66;108917;1259;60389;-74
2023/03/13 01:08:06;;;;;;;17.90;6.00;;;;;;;-1.03;72.39;98896.77;109086;1260;72836;-73
2023/03/13 01:11:05;;;;;;;15.20;5.30;;;;;;;-1.01;72.42;98890.05;109107;1259;66529;-73
2023/03/13 01:14:01;;;;;;;20.70;5.60;;;;;;;-0.99;72.40;98891.17;109010;1260;73539;-73
2023/03/13 01:16:47;;;;;;;16.90;5.80;;;;;;;-0.96;72.69;98890.85;108866;1260;57306;-73
2023/03/13 01:19:34;;;;;;;15.80;5.70;;;;;;;-0.93;72.69;98879.76;109059;1260;58293;-73
2023/03/13 01:22:20;;;;;;;15.50;5.00;;;;;;;-0.89;73.04;98870.68;109104;1260;71655;-72
2023/03/13 01:25:07;;;;;;;15.10;5.30;;;;;;;-0.84;73.10;98877.21;109117;1259;67894;-73
2023/03/13 01:27:54;;;;;;;16.40;5.20;;;;;;;-0.79;73.07;98880.98;108991;1260;72746;-72
2023/03/13 01:30:41;;;;;;;14.30;5.70;;;;;;;-0.74;72.79;98875.33;108948;1259;57346;-74
2023/03/13 01:33:28;;;;;;;15.40;5.40;;;;;;;-0.69;72.95;98861.68;108997;1260;58845;-73
2023/03/13 01:36:16;;;;;;;13.30;4.60;;;;;;;-0.64;72.74;98850.98;108336;1259;1002447;-73
2023/03/13 01:39:04;;;;;;;16.10;5.00;;;;;;;-0.61;72.99;98836.36;108222;1259;1002479;-73
2023/03/13 01:41:51;;;;;;;12.60;4.60;;;;;;;-0.61;73.25;98832.66;109033;1259;72344;-73
2023/03/13 01:44:56;;;;;;;16.20;5.60;;;;;;;-0.52;73.16;98843.73;108232;1259;1002926;-72
2023/03/13 01:47:44;;;;;;;14.00;4.90;;;;;;;-0.46;72.90;98841.48;108974;1259;60278;-72
2023/03/13 01:50:40;;;;;;;14.80;5.50;;;;;;;-0.41;73.03;98842.09;108235;1260;1002581;-72
2023/03/13 01:53:43;;;;;;;12.90;5.00;;;;;;;-0.38;72.86;98840.70;109111;1260;68789;-70
2023/03/13 01:56:50;;;;;;;17.00;5.80;;;;;;;-0.36;72.85;98837.11;109008;1260;73004;-71
2023/03/13 01:59:55;;;;;;;15.30;5.50;;;;;;;-0.33;72.79;98831.41;108217;1259;1002202;-72
2023/03/13 02:02:47;;;;;;;13.70;5.00;;;;;;;-0.32;72.99;98829.46;108923;1259;58756;-72
2023/03/13 02:05:34;;;;;;;14.60;5.80;;;;;;;-0.32;73.17;98820.39;109072;1259;74026;-72
2023/03/13 02:08:31;;;;;;;14.90;5.40;;;;;;;-0.31;73.41;98813.21;108911;1259;68000;-72
2023/03/13 02:11:40;;;;;;;14.20;5.10;;;;;;;-0.31;73.87;98819.47;108135;1259;1002535;-72
2023/03/13 02:14:32;;;;;;;14.60;4.70;;;;;;;-0.30;73.96;98826.02;108966;1260;57453;-72
2023/03/13 02:17:19;;;;;;;15.80;5.40;;;;;;;-0.30;74.35;98835.09;108888;1265;60078;-73
2023/03/13 02:20:08;;;;;;;15.50;4.50;;;;;;;-0.27;74.23;98837.02;108917;1259;72880;-72
2023/03/13 02:23:23;;;;;;;14.50;5.00;;;;;;;-0.27;74.45;98831.64;107581;1259;1002504;-72
2023/03/13 02:26:10;;;;;;;14.00;4.20;;;;;;;-0.26;74.54;98835.59;108304;1260;1002072;-72
2023/03/13 02:28:57;;;;;;;13.70;5.20;;;;;;;-0.25;74.57;98829.63;109007;1259;59257;-73
2023/03/13 02:31:49;;;;;;;12.50;5.00;;;;;;;-0.22;74.67;98827.40;108867;1259;60168;-72
2023/03/13 02:34:40;;;;;;;16.20;5.20;;;;;;;-0.22;74.91;98826.80;108192;1259;1002888;-73
2023/03/13 02:37:29;;;;;;;11.90;4.70;;;;;;;-0.22;75.12;98829.77;108909;1260;68774;-72
2023/03/13 02:40:27;;;;;;;15.50;5.40;;;;;;;-0.23;75.35;98825.48;109058;1260;72700;-72
2023/03/13 02:43:37;;;;;;;13.90;5.60;;;;;;;-0.26;75.57;98823.35;108934;1259;57365;-71
2023/03/13 02:46:24;;;;;;;12.90;5.30;;;;;;;-0.27;75.94;98817.01;108122;1260;1002774;-72
2023/03/13 02:49:29;;;;;;;17.00;5.00;;;;;;;-0.28;76.04;98811.95;109013;1259;72984;-71
2023/03/13 02:52:28;;;;;;;12.50;4.30;;;;;;;-0.27;76.43;98802.88;109055;1259;67842;-73
2023/03/13 02:55:28;;;;;;;12.20;4.50;;;;;;;-0.28;76.63;98796.28;108958;1260;71487;-73
2023/03/13 02:58:15;;;;;;;17.10;5.60;;;;;;;-0.27;76.90;98796.41;109074;1260;57304;-73
2023/03/13 03:01:06;;;;;;;17.40;6.20;;;;;;;-0.26;76.89;98789.27;109123;1260;58705;-73
2023/03/13 03:03:53;;;;;;;14.60;5.50;;;;;;;-0.26;76.90;98788.16;108951;1260;72940;-73
2023/03/13 03:06:40;;;;;;;15.30;5.90;;;;;;;-0.26;77.01;98780.14;108994;1260;67768;-73
2023/03/13 03:09:26;;;;;;;14.70;5.70;;;;;;;-0.24;77.03;98773.77;108270;1259;1003018;-72
2023/03/13 03:12:16;;;;;;;15.00;5.60;;;;;;;-0.24;77.17;98764.31;109022;1259;57332;-72
2023/03/13 03:15:03;;;;;;;16.50;5.40;;;;;;;-0.24;77.18;98759.44;109089;1259;59244;-73
2023/03/13 03:17:50;;;;;;;19.30;6.10;;;;;;;-0.26;77.64;98756.27;109053;1259;72854;-72
2023/03/13 03:20:36;;;;;;;15.20;6.20;;;;;;;-0.29;77.89;98747.16;109080;1259;65729;-72
2023/03/13 03:23:23;;;;;;;19.70;7.00;;;;;;;-0.29;77.88;98748.44;108309;1260;1002347;-73
2023/03/13 03:26:09;;;;;;;16.40;5.60;;;;;;;-0.34;78.31;98734.73;108983;1260;58390;-72
2023/03/13 03:28:56;;;;;;;16.00;5.60;;;;;;;-0.29;78.16;98733.78;109034;1259;59011;-72
2023/03/13 03:31:44;;;;;;;16.30;5.90;;;;;;;-0.31;78.02;98721.52;109008;1259;72963;-72
2023/03/13 03:34:32;;;;;;;11.90;5.20;;;;;;;-0.29;78.41;98724.17;108225;1260;1002210;-73
2023/03/13 03:37:18;;;;;;;16.10;6.10;;;;;;;-0.31;78.44;98718.56;109017;1259;72243;-73
2023/03/13 03:40:06;;;;;;;16.60;6.50;;;;;;;-0.34;78.89;98713.65;108223;1259;1002240;-71
2023/03/13 03:42:52;;;;;;;15.40;6.30;;;;;;;-0.36;79.37;98717.05;109079;1259;60795;-71
2023/03/13 03:45:39;;;;;;;16.30;6.60;;;;;;;-0.35;79.31;98730.25;109018;1259;73292;-71
2023/03/13 03:48:26;;;;;;;16.50;6.20;;;;;;;-0.34;80.16;98720.11;109043;1259;68735;-72
2023/03/13 03:51:12;;;;;;;14.50;6.30;;;;;;;-0.36;80.53;98710.60;108945;1260;73975;-71
2023/03/13 03:54:01;;;;;;;18.40;7.80;;;;;;;-0.38;81.26;98707.38;109028;1259;57390;-73
2023/03/13 03:56:48;;;;;;;17.70;6.20;;;;;;;-0.39;82.27;98697.36;109044;1259;60200;-72
2023/03/13 03:59:34;;;;;;;17.10;6.10;;;;;;;-0.39;82.83;98695.77;108187;1260;1003106;-73
2023/03/13 04:02:23;;;;;;;15.40;5.20;;;;;;;-0.42;82.95;98691.23;109000;1259;67810;-72
2023/03/13 04:05:11;;;;;;;14.50;6.30;;;;;;;-0.37;83.34;98694.63;108914;1259;73702;-73
2023/03/13 04:07:59;;;;;;;14.70;6.00;;;;;;;-0.36;83.98;98697.20;108964;1259;57402;-75
2023/03/13 04:10:46;;;;;;;15.80;5.70;;;;;;;-0.37;84.69;98693.22;108973;1260;58768;-72
2023/03/13 04:13:33;;;;;;;18.90;7.00;;;;;;;-0.38;85.18;98682.83;108233;1259;1002380;-73
2023/03/13 04:16:19;;;;;;;20.00;7.40;;;;;;;-0.37;85.63;98676.50;108987;1260;67903;-72
2023/03/13 04:19:06;;;;;;;17.60;6.90;;;;;;;-0.39;86.47;98670.14;109014;1260;71994;-73
2023/03/13 04:21:54;;;;;;;18.60;6.90;;;;;;;-0.38;86.71;98661.06;108331;1259;1002297;-74
2023/03/13 04:24:41;;;;;;;14.30;6.00;;;;;;;-0.38;87.09;98663.84;109067;1259;58949;-72
2023/03/13 04:27:28;;;;;;;17.00;6.50;;;;;;;-0.39;88.07;98660.39;108985;1259;72800;-72
2023/03/13 04:30:15;;;;;;;17.00;7.50;;;;;;;-0.37;88.29;98652.45;109016;1259;67660;-73
2023/03/13 04:33:24;;;;;;;18.40;7.80;;;;;;;-0.34;88.86;98645.34;108958;1259;71118;-71
2023/03/13 04:36:30;;;;;;;19.70;8.20;;;;;;;-0.32;89.44;98646.25;109094;1259;57500;-73
2023/03/13 04:39:29;;;;;;;18.80;6.70;;;;;;;-0.30;89.80;98643.18;108996;1260;60100;-72
2023/03/13 04:42:45;;;;;;;20.10;7.30;;;;;;;-0.30;90.33;98642.16;108935;1260;71954;-71
2023/03/13 04:45:55;;;;;;;18.50;6.20;;;;;;;-0.27;90.34;98641.30;109030;1259;67831;-72
2023/03/13 04:48:41;;;;;;;19.40;7.50;;;;;;;-0.26;90.80;98633.89;108248;1259;1002842;-72
2023/03/13 04:51:48;;;;;;;21.90;8.10;;;;;;;-0.23;91.36;98630.08;108996;1259;58167;-73
2023/03/13 04:54:46;;;;;;;20.10;7.90;;;;;;;-0.20;91.59;98620.98;108909;1259;59991;-72
2023/03/13 04:57:53;;;;;;;21.60;8.50;;;;;;;-0.16;91.54;98606.86;109059;1260;71577;-70
2023/03/13 05:00:53;;;;;;;19.60;8.20;;;;;;;-0.15;91.49;98599.78;109077;1259;67907;-72
2023/03/13 05:03:40;;;;;;;21.00;7.50;;;;;;;-0.14;92.14;98596.30;108991;1260;70787;-71
2023/03/13 05:06:35;;;;;;;21.20;8.70;;;;;;;-0.12;91.91;98594.77;108897;1261;58977;-73
2023/03/13 05:09:32;;;;;;;21.10;8.80;;;;;;;-0.08;92.54;98586.50;108851;1261;61589;-72
2023/03/13 05:12:51;;;;;;;21.10;8.80;;;;;;;-0.04;93.07;98588.54;107323;1260;2002469;-73
2023/03/13 05:16:01;;;;;;;22.20;7.90;;;;;;;-0.02;93.98;98582.67;108945;1260;66638;-73
2023/03/13 05:19:06;;;;;;;20.40;7.10;;;;;;;0.02;93.88;98580.70;108959;1260;72744;-70
2023/03/13 05:22:04;;;;;;;20.20;8.30;;;;;;;0.05;94.58;98576.36;108956;1259;57811;-71
2023/03/13 05:25:29;;;;;;;19.10;7.70;;;;;;;0.08;95.27;98569.20;108829;1260;59115;-70
2023/03/13 05:28:36;;;;;;;19.90;7.50;;;;;;;0.14;95.24;98573.72;108857;1260;71129;-73
2023/03/13 05:31:47;;;;;;;23.20;8.00;;;;;;;0.19;95.84;98573.98;109000;1260;67900;-71
2023/03/13 05:34:49;;;;;;;20.90;8.30;;;;;;;0.22;96.39;98558.60;108951;1259;71493;-71
2023/03/13 05:38:01;;;;;;;18.80;7.20;;;;;;;0.28;96.40;98559.65;108977;1259;58691;-71
2023/03/13 05:40:56;;;;;;;22.50;8.00;;;;;;;0.30;96.74;98563.85;108956;1259;60913;-70
2023/03/13 05:44:01;;;;;;;20.90;8.80;;;;;;;0.32;97.17;98558.86;108928;1260;71052;-72
2023/03/13 05:47:18;;;;;;;19.60;8.30;;;;;;;0.34;97.47;98557.36;108946;1260;66663;-71
2023/03/13 05:50:13;;;;;;;17.10;7.30;;;;;;;0.37;97.68;98555.66;107418;1259;2002629;-73
2023/03/13 05:53:37;;;;;;;19.00;7.10;;;;;;;0.41;97.57;98544.58;108808;1260;58681;-72
2023/03/13 05:56:24;;;;;;;16.40;6.40;;;;;;;0.44;97.65;98537.93;107514;1259;2002588;-71
2023/03/13 05:59:29;;;;;;;21.80;8.30;;;;;;;0.44;98.66;98533.91;109005;1259;73883;-72
2023/03/13 06:02:35;;;;;;;19.00;7.90;;;;;;;0.43;99.41;98533.10;108976;1260;67814;-69
2023/03/13 06:05:23;;;;;;;23.00;8.80;;;;;;;0.44;99.69;98529.52;109009;1259;72491;-73
2023/03/13 06:08:09;;;;;;;25.50;10.10;;;;;;;0.49;99.48;98524.34;108984;1259;57539;-70
2023/03/13 06:10:59;;;;;;;24.20;9.70;;;;;;;0.53;99.74;98522.05;108957;1259;58748;-72
2023/03/13 06:13:46;;;;;;;22.80;8.90;;;;;;;0.56;100.00;98520.30;108945;1260;72704;-71
2023/03/13 06:16:44;;;;;;;22.00;9.50;;;;;;;0.61;99.68;98518.75;108986;1259;68754;-73
2023/03/13 06:19:33;;;;;;;20.00;8.30;;;;;;;0.65;99.63;98512.38;109021;1259;71851;-70
2023/03/13 06:22:19;;;;;;;17.60;7.20;;;;;;;0.70;99.77;98510.33;109017;1259;58777;-73
2023/03/13 06:25:07;;;;;;;19.30;8.60;;;;;;;0.71;99.98;98504.39;109026;1260;60434;-73
2023/03/13 06:27:53;;;;;;;27.10;9.80;;;;;;;0.73;100.00;98490.77;108153;1259;1002126;-71
2023/03/13 06:30:40;;;;;;;21.90;9.30;;;;;;;0.75;100.00;98493.62;108994;1259;68628;-75
2023/03/13 06:33:26;;;;;;;22.60;9.50;;;;;;;0.78;100.00;98496.23;109063;1260;72699;-72
2023/03/13 06:36:13;;;;;;;21.50;7.70;;;;;;;0.81;100.00;98493.40;109000;1259;57453;-72
2023/03/13 06:39:00;;;;;;;24.90;11.10;;;;;;;0.86;100.00;98490.69;109052;1260;58738;-73
2023/03/13 06:41:46;;;;;;;24.40;9.40;;;;;;;0.91;100.00;98487.71;108975;1260;71365;-76
2023/03/13 06:44:33;;;;;;;26.10;10.10;;;;;;;0.95;100.00;98481.38;108939;1260;69037;-73
2023/03/13 06:47:19;;;;;;;24.90;10.10;;;;;;;1.02;100.00;98475.33;108933;1259;72469;-74
2023/03/13 06:50:06;;;;;;;26.10;10.60;;;;;;;1.10;100.00;98474.52;108972;1260;59077;-74
2023/03/13 06:52:53;;;;;;;23.20;9.80;;;;;;;1.13;100.00;98474.48;108998;1260;60159;-74
2023/03/13 06:55:40;;;;;;;21.70;8.80;;;;;;;1.17;100.00;98469.66;109008;1259;73881;-71
2023/03/13 06:58:26;;;;;;;20.90;9.80;;;;;;;1.20;100.00;98469.84;108966;1259;68065;-71
2023/03/13 07:01:18;;;;;;;23.00;8.50;;;;;;;1.24;100.00;98466.76;109051;1259;71394;-70
2023/03/13 07:04:05;;;;;;;26.60;10.50;;;;;;;1.33;100.00;98463.73;108970;1260;57351;-72
2023/03/13 07:06:51;;;;;;;21.40;9.30;;;;;;;1.41;100.00;98463.21;109034;1259;60386;-71
2023/03/13 07:09:38;;;;;;;18.90;7.80;;;;;;;1.49;100.00;98459.02;109065;1260;72013;-73
2023/03/13 07:12:25;;;;;;;22.20;8.50;;;;;;;1.60;100.00;98459.70;109083;1260;68449;-73
2023/03/13 07:15:11;;;;;;;28.00;9.50;;;;;;;1.64;100.00;98458.36;109048;1259;73606;-72
2023/03/13 07:17:58;;;;;;;20.30;7.80;;;;;;;1.68;100.00;98454.98;109034;1259;57409;-73
2023/03/13 07:20:50;;;;;;;24.00;10.00;;;;;;;1.74;100.00;98448.17;109033;1260;60061;-72
2023/03/13 07:23:37;;;;;;;23.40;9.90;;;;;;;1.77;100.00;98443.73;108982;1260;73428;-71
2023/03/13 07:26:23;;;;;;;27.80;9.60;;;;;;;1.88;99.94;98438.80;108987;1260;65518;-75
2023/03/13 07:29:10;;;;;;;22.60;10.10;;;;;;;1.95;99.48;98434.64;108994;1260;72569;-75
2023/03/13 07:31:57;;;;;;;24.80;10.50;;;;;;;2.04;99.08;98427.22;108955;1259;57697;-74
2023/03/13 07:34:43;;;;;;;19.00;8.90;;;;;;;2.14;98.57;98425.79;109039;1259;60845;-73
2023/03/13 07:37:30;;;;;;;22.00;9.20;;;;;;;2.23;97.97;98416.82;109074;1260;72727;-74
2023/03/13 07:40:16;;;;;;;17.10;7.10;;;;;;;2.32;97.37;98406.56;109016;1259;66377;-74
2023/03/13 07:43:03;;;;;;;20.90;8.90;;;;;;;2.37;97.03;98399.75;108978;1259;73512;-74
2023/03/13 07:46:01;;;;;;;21.00;8.90;;;;;;;2.45;96.68;98398.10;109028;1259;57532;-73
2023/03/13 07:48:49;;;;;;;17.60;7.80;;;;;;;2.52;96.60;98391.70;108966;1259;60199;-71
2023/03/13 07:51:35;;;;;;;18.10;8.20;;;;;;;2.57;96.15;98386.92;108934;1259;71846;-72
2023/03/13 07:54:29;;;;;;;18.20;8.30;;;;;;;2.58;96.61;98387.09;108949;1260;68862;-76
2023/03/13 07:57:16;;;;;;;19.40;8.30;;;;;;;2.63;96.51;98386.00;109029;1260;72734;-73
2023/03/13 08:00:06;;;;;;;19.20;8.10;;;;;;;2.68;96.22;98381.06;108984;1260;59828;-71
2023/03/13 08:02:58;;;;;;;17.80;8.10;;;;;;;2.75;96.22;98378.48;109024;1259;60261;-74
2023/03/13 08:05:44;;;;;;;18.20;7.90;;;;;;;2.80;96.05;98369.57;109001;1259;73148;-72
2023/03/13 08:08:31;;;;;;;20.30;8.00;;;;;;;2.87;95.93;98364.99;109028;1260;67594;-73
2023/03/13 08:11:24;;;;;;;18.90;8.40;;;;;;;2.93;95.64;98368.23;108953;1260;72654;-72
2023/03/13 08:14:11;;;;;;;18.50;7.20;;;;;;;2.98;95.75;98364.39;109011;1259;57657;-74
2023/03/13 08:16:57;;;;;;;20.10;8.30;;;;;;;3.05;95.58;98362.83;109094;1259;60271;-74
2023/03/13 08:19:44;;;;;;;18.80;9.00;;;;;;;3.06;95.69;98357.63;108992;1260;71613;-73
2023/03/13 08:22:30;;;;;;;20.40;8.10;;;;;;;3.11;95.65;98355.39;109046;1260;68916;-73
2023/03/13 08:25:17;;;;;;;21.00;9.20;;;;;;;3.13;95.78;98349.84;108987;1260;73982;-74
2023/03/13 08:28:03;;;;;;;22.10;8.70;;;;;;;3.13;96.07;98349.77;108973;1260;58127;-74
2023/03/13 08:30:49;;;;;;;19.70;8.30;;;;;;;3.19;95.93;98342.50;108937;1260;58785;-71
2023/03/13 08:33:36;;;;;;;20.00;9.30;;;;;;;3.18;96.09;98338.91;108980;1260;73853;-73
2023/03/13 08:36:32;;;;;;;20.40;8.30;;;;;;;3.22;96.25;98327.19;109016;1260;68356;-73
2023/03/13 08:39:20;;;;;;;22.60;9.90;;;;;;;3.28;96.36;98323.30;108991;1260;73530;-74
2023/03/13 08:42:10;;;;;;;19.50;8.00;;;;;;;3.31;96.38;98316.52;108968;1260;57427;-74
2023/03/13 08:44:56;;;;;;;21.60;9.00;;;;;;;3.36;96.28;98310.75;109022;1260;61158;-74
2023/03/13 08:47:43;;;;;;;23.60;9.90;;;;;;;3.43;96.03;98309.11;109003;1260;71808;-73
2023/03/13 08:50:30;;;;;;;22.80;8.90;;;;;;;3.50;96.13;98307.39;108980;1260;69058;-73
2023/03/13 08:53:17;;;;;;;22.80;9.60;;;;;;;3.50;96.00;98305.30;108943;1260;71479;-73
2023/03/13 08:56:11;;;;;;;21.40;9.60;;;;;;;3.50;96.22;98298.61;108954;1260;58765;-76
2023/03/13 08:59:03;;;;;;;25.00;11.40;;;;;;;3.57;95.98;98297.05;108885;1260;61101;-73
2023/03/13 09:01:49;;;;;;;25.80;10.10;;;;;;;3.59;95.90;98293.73;108972;1260;73829;-76
2023/03/13 09:04:36;;;;;;;19.80;8.80;;;;;;;3.61;95.95;98293.09;108939;1259;66582;-75
2023/03/13 09:07:23;;;;;;;20.30;9.00;;;;;;;3.58;96.09;98284.67;108969;1259;71042;-74
2023/03/13 09:10:10;;;;;;;22.00;9.20;;;;;;;3.62;96.32;98277.02;109040;1259;58522;-75
2023/03/13 09:12:56;;;;;;;24.70;11.30;;;;;;;3.61;96.42;98271.65;108968;1260;60384;-76
2023/03/13 09:15:42;;;;;;;22.60;9.30;;;;;;;3.69;96.18;98268.08;109005;1260;72008;-75
2023/03/13 09:18:30;;;;;;;23.60;10.90;;;;;;;3.74;96.07;98266.98;108974;1260;67756;-75
2023/03/13 09:21:34;;;;;;;24.00;10.90;;;;;;;3.85;95.45;98266.83;108935;1260;71243;-75
2023/03/13 09:24:23;;;;;;;23.20;10.00;;;;;;;3.93;95.08;98256.91;108910;1260;59636;-76
2023/03/13 09:27:09;;;;;;;21.70;10.50;;;;;;;3.96;94.87;98256.70;108952;1260;58823;-74
2023/03/13 09:29:56;;;;;;;27.20;12.50;;;;;;;3.93;94.83;98251.40;109008;1260;73030;-74
2023/03/13 09:32:42;;;;;;;26.40;10.40;;;;;;;3.96;94.82;98249.83;109025;1260;67906;-74
2023/03/13 09:35:29;;;;;;;22.90;10.10;;;;;;;3.94;95.20;98243.30;109033;1260;72530;-76
2023/03/13 09:38:20;;;;;;;20.30;9.90;;;;;;;3.97;95.41;98242.17;108922;1260;59703;-75
2023/03/13 09:41:16;;;;;;;25.30;11.50;;;;;;;4.01;95.32;98236.75;109039;1261;58842;-73
2023/03/13 09:44:36;;;;;;;23.30;11.10;;;;;;;4.10;95.31;98235.70;108977;1261;73248;-74
2023/03/13 09:47:57;;;;;;;23.50;10.60;;;;;;;4.22;95.29;98227.59;108936;1259;68867;-78
2023/03/13 09:50:58;;;;;;;20.70;10.50;;;;;;;4.41;94.99;98217.80;108982;1260;71823;-75
2023/03/13 09:53:52;;;;;;;20.60;10.90;;;;;;;4.47;94.93;98214.31;108988;1260;57670;-74
2023/03/13 09:56:55;;;;;;;18.30;9.10;;;;;;;4.55;94.71;98210.88;109039;1260;60155;-75
2023/03/13 10:00:11;;;;;;;20.00;10.50;;;;;;;4.56;94.62;98205.34;108961;1261;72032;-73
2023/03/13 10:03:19;;;;;;;22.50;10.60;;;;;;;4.57;94.84;98197.89;108968;1260;67745;-75
2023/03/13 10:06:24;;;;;;;22.70;10.00;;;;;;;4.61;94.96;98197.34;108963;1260;71319;-75
2023/03/13 10:09:28;;;;;;;20.10;9.90;;;;;;;4.64;95.13;98185.84;108909;1260;58001;-75
2023/03/13 10:12:23;;;;;;;18.70;9.50;;;;;;;4.69;94.92;98181.79;108992;1260;58830;-74
2023/03/13 10:15:40;;;;;;;19.30;9.70;;;;;;;4.69;95.32;98175.08;108978;1264;70804;-76
2023/03/13 10:18:26;;;;;;;16.30;8.70;;;;;;;4.78;95.42;98173.94;109038;1260;66385;-75
2023/03/13 10:21:18;;;;;;;18.50;9.50;;;;;;;4.85;95.36;98170.96;108959;1260;72719;-73
2023/03/13 10:24:26;;;;;;;15.70;8.00;;;;;;;4.84;95.52;98165.21;108184;1260;1002915;-74
2023/03/13 10:27:14;;;;;;;16.90;8.70;;;;;;;4.81;96.09;98164.61;108956;1260;60165;-78
2023/03/13 10:30:01;;;;;;;17.90;8.20;;;;;;;4.81;96.59;98158.30;109012;1260;73877;-75
2023/03/13 10:32:48;;;;;;;17.30;8.40;;;;;;;4.77;97.12;98152.92;108886;1260;66487;-74
2023/03/13 10:35:42;;;;;;;16.40;7.50;;;;;;;4.84;96.98;98146.45;108997;1262;70259;-74
2023/03/13 10:38:33;;;;;;;12.90;6.30;;;;;;;4.84;97.49;98141.84;109011;1260;59489;-74
2023/03/13 10:41:29;;;;;;;15.40;7.40;;;;;;;4.83;97.82;98137.40;108995;1261;58010;-75
2023/03/13 10:44:22;;;;;;;16.40;8.30;;;;;;;4.85;98.11;98126.35;108905;1260;72908;-74
2023/03/13 10:47:13;;;;;;;14.70;7.90;;;;;;;4.88;98.12;98119.23;108968;1260;66901;-73
2023/03/13 10:50:01;;;;;;;14.90;7.70;;;;;;;4.93;98.11;98114.73;108970;1261;72488;-74
2023/03/13 10:52:49;;;;;;;16.40;7.20;;;;;;;4.92;98.44;98102.13;108927;1260;59378;-74
2023/03/13 10:55:43;;;;;;;14.00;6.90;;;;;;;4.92;98.61;98096.35;108975;1260;57811;-75
2023/03/13 10:58:45;;;;;;;15.90;8.10;;;;;;;4.92;98.84;98084.77;108944;1260;72931;-77
2023/03/13 11:01:41;;;;;;;14.90;7.10;;;;;;;4.98;98.87;98074.58;108967;1260;67863;-72
2023/03/13 11:04:33;;;;;;;15.40;8.40;;;;;;;4.98;98.99;98067.02;108917;1260;72998;-73
2023/03/13 11:07:29;;;;;;;17.60;8.10;;;;;;;4.96;99.71;98063.18;108912;1259;57832;-74
2023/03/13 11:10:21;;;;;;;14.00;6.80;;;;;;;4.92;99.97;98056.64;108811;1260;60090;-73
2023/03/13 11:13:35;;;;;;;17.20;8.20;;;;;;;4.93;100.00;98050.24;109025;1260;73082;-74
2023/03/13 11:16:27;;;;;;;16.50;8.20;;;;;;;4.99;100.00;98041.27;108959;1263;66769;-74
2023/03/13 11:19:24;;;;;;;15.80;7.30;;;;;;;5.07;100.00;98040.27;108997;1261;72573;-73
2023/03/13 11:22:13;;;;;;;15.10;7.80;;;;;;;5.09;100.00;98036.02;109014;1260;60714;-74
2023/03/13 11:25:16;;;;;;;14.90;7.00;;;;;;;5.13;100.00;98021.41;109009;1261;58818;-72
2023/03/13 11:28:36;;;;;;;13.90;7.20;;;;;;;5.15;99.97;98014.06;108982;1260;74070;-74
2023/03/13 11:31:35;;;;;;;14.30;6.40;;;;;;;5.14;100.00;97998.21;109043;1261;67951;-73
2023/03/13 11:34:27;;;;;;;14.40;7.20;;;;;;;5.12;100.00;97984.08;109011;1260;71587;-75
2023/03/13 11:37:18;;;;;;;11.30;5.80;;;;;;;5.10;100.00;97980.39;109024;1260;58256;-73
2023/03/13 11:40:30;;;;;;;11.90;6.70;;;;;;;5.08;100.00;97982.14;109009;1259;60393;-74
2023/03/13 11:43:56;;;;;;;15.00;8.20;;;;;;;5.03;100.00;97969.95;109044;1260;71550;-74
2023/03/13 11:47:19;;;;;;;12.20;6.50;;;;;;;4.99;100.00;97962.21;108934;1260;68920;-75
2023/03/13 11:50:14;;;;;;;13.20;6.50;;;;;;;4.98;100.00;97959.34;108818;1259;203804;-73
2023/03/13 11:54:01;;;;;;;12.60;6.40;;;;;;;4.98;100.00;97953.48;109003;1260;60325;-77
2023/03/13 11:57:28;;;;;;;12.30;5.80;;;;;;;4.97;100.00;97941.10;108496;1270;57833;-75
2023/03/13 12:00:47;;;;;;;13.80;7.10;;;;;;;4.94;100.00;97942.23;108517;1270;73136;-74
2023/03/13 12:03:55;;;;;;;12.00;6.20;;;;;;;4.95;100.00;97933.51;108507;1272;67737;-74
2023/03/13 12:07:09;;;;;;;15.20;6.80;;;;;;;4.98;100.00;97930.96;108405;1269;72744;-73
2023/03/13 12:10:13;;;;;;;14.40;6.70;;;;;;;4.97;100.00;97919.83;108404;1273;58199;-74
2023/03/13 12:13:18;;;;;;;12.00;5.40;;;;;;;5.00;100.00;97908.02;108414;1269;60220;-73
2023/03/13 12:16:18;;;;;;;13.70;7.10;;;;;;;5.02;100.00;97892.38;108432;1269;71891;-73
2023/03/13 12:19:10;;;;;;;14.60;6.20;;;;;;;5.04;100.00;97879.11;108400;1269;66893;-74
2023/03/13 12:22:14;;;;;;;10.90;5.40;;;;;;;5.01;100.00;97862.55;108228;1269;71457;-75
2023/03/13 12:25:12;;;;;;;14.00;6.40;;;;;;;5.08;100.00;97858.58;108377;1269;59411;-74
2023/03/13 12:28:23;;;;;;;14.50;6.80;;;;;;;5.08;100.00;97858.01;108371;1272;60241;-76
2023/03/13 12:31:19;;;;;;;14.30;6.70;;;;;;;5.12;100.00;97852.30;108434;1260;73068;-73
2023/03/13 12:34:26;;;;;;;14.40;6.60;;;;;;;5.14;100.00;97847.15;108981;1260;67315;-74
2023/03/13 12:37:33;;;;;;;13.60;6.20;;;;;;;5.18;100.00;97836.64;108957;1259;72341;-73
2023/03/13 12:40:48;;;;;;;12.10;6.10;;;;;;;5.19;100.00;97831.23;108918;1260;58186;-74
2023/03/13 12:43:39;;;;;;;12.10;5.40;;;;;;;5.21;100.00;97825.89;109037;1260;58877;-75
2023/03/13 12:46:54;;;;;;;13.90;7.20;;;;;;;5.23;100.00;97824.21;108926;1260;71796;-75
2023/03/13 12:50:08;;;;;;;13.10;7.40;;;;;;;5.24;100.00;97818.11;108950;1260;67751;-72
2023/03/13 12:53:08;;;;;;;14.20;6.10;;;;;;;5.23;100.00;97814.31;108960;1260;72514;-74
2023/03/13 12:56:25;;;;;;;12.10;5.60;;;;;;;5.22;100.00;97812.52;108976;1259;59308;-76
2023/03/13 12:59:29;;;;;;;14.10;6.20;;;;;;;5.25;100.00;97791.66;109002;1260;59192;-73
2023/03/13 13:02:29;;;;;;;13.20;5.90;;;;;;;5.30;100.00;97795.42;108888;1260;73063;-74
2023/03/13 13:05:21;;;;;;;14.00;7.10;;;;;;;5.36;100.00;97797.29;108997;1260;67995;-73
2023/03/13 13:08:24;;;;;;;13.60;6.00;;;;;;;5.37;100.00;97793.89;108932;1260;71027;-75
2023/03/13 13:11:32;;;;;;;12.80;6.20;;;;;;;5.38;100.00;97784.98;108978;1259;59668;-73
2023/03/13 13:14:19;;;;;;;14.80;6.30;;;;;;;5.43;100.00;97774.66;109050;1259;59026;-75
2023/03/13 13:17:23;;;;;;;14.50;7.00;;;;;;;5.50;100.00;97767.58;109056;1260;71727;-77
2023/03/13 13:20:41;;;;;;;16.60;6.80;;;;;;;5.54;100.00;97761.22;109005;1260;66491;-74